createdAt,value
2019-04-10T00:01:46.539Z,4.88
2019-04-10T00:04:14.665Z,4.74
2019-04-10T00:06:41.699Z,4.72
2019-04-10T00:09:08.518Z,4.69
2019-04-10T00:11:35.096Z,4.69
2019-04-10T00:14:02.951Z,4.63
2019-04-10T00:16:29.890Z,4.54
2019-04-10T00:18:56.724Z,4.51
2019-04-10T00:21:25.136Z,4.49
2019-04-10T00:23:51.910Z,4.41
2019-04-10T00:26:18.562Z,4.40
2019-04-10T00:28:45.608Z,4.35
2019-04-10T00:31:13.692Z,4.34
2019-04-10T00:33:40.977Z,4.38
2019-04-10T00:36:08.015Z,4.34
2019-04-10T00:38:35.407Z,4.34
2019-04-10T00:41:02.069Z,4.25
2019-04-10T00:43:28.869Z,4.27
2019-04-10T00:45:55.790Z,4.20
2019-04-10T00:48:22.332Z,4.14
2019-04-10T00:50:50.855Z,4.09
2019-04-10T00:53:19.010Z,4.08
2019-04-10T00:55:46.109Z,4.01
2019-04-10T00:58:14.120Z,3.99
2019-04-10T01:00:41.279Z,4.05
2019-04-10T01:03:13.477Z,4.02
2019-04-10T01:05:40.362Z,3.99
2019-04-10T01:08:07.047Z,3.99
2019-04-10T01:10:34.578Z,3.93
2019-04-10T01:13:01.406Z,3.90
2019-04-10T01:15:28.821Z,3.86
2019-04-10T01:17:55.544Z,3.87
2019-04-10T01:20:23.806Z,3.81
2019-04-10T01:22:51.896Z,3.77
2019-04-10T01:25:18.733Z,3.78
2019-04-10T01:27:45.510Z,3.76
2019-04-10T01:30:12.527Z,3.74
2019-04-10T01:32:39.759Z,3.69
2019-04-10T01:35:07.780Z,3.68
2019-04-10T01:37:46.642Z,3.68
2019-04-10T01:40:04.674Z,3.67
2019-04-10T01:42:32.396Z,3.61
2019-04-10T01:45:00.757Z,3.56
2019-04-10T01:47:27.485Z,3.51
2019-04-10T01:49:54.150Z,3.48
2019-04-10T01:52:20.918Z,3.43
2019-04-10T01:54:47.882Z,3.37
2019-04-10T01:57:14.714Z,3.26
2019-04-10T01:59:42.446Z,3.13
2019-04-10T02:02:16.898Z,3.03
2019-04-10T02:04:43.835Z,2.91
2019-04-10T02:07:10.753Z,2.84
2019-04-10T02:09:37.396Z,2.78
2019-04-10T02:12:04.167Z,2.75
2019-04-10T02:14:32.102Z,2.69
2019-04-10T02:16:59.094Z,2.67
2019-04-10T02:19:26.594Z,2.57
2019-04-10T02:21:53.235Z,2.50
2019-04-10T02:24:19.970Z,2.46
2019-04-10T02:26:46.668Z,2.34
2019-04-10T02:29:13.469Z,2.19
2019-04-10T02:31:40.494Z,2.15
2019-04-10T02:34:09.066Z,2.17
2019-04-10T02:36:38.494Z,2.14
2019-04-10T02:39:19.082Z,2.06
2019-04-10T02:41:34.654Z,1.93
2019-04-10T02:44:03.455Z,1.78
2019-04-10T02:46:31.451Z,1.67
2019-04-10T02:49:00.208Z,1.57
2019-04-10T02:51:27.970Z,1.54
2019-04-10T02:53:56.082Z,1.53
2019-04-10T02:56:24.951Z,1.54
2019-04-10T02:58:51.733Z,1.63
2019-04-10T03:01:19.843Z,1.70
2019-04-10T03:03:46.585Z,1.81
2019-04-10T03:06:13.504Z,1.82
2019-04-10T03:08:54.962Z,1.86
2019-04-10T03:11:12.209Z,1.89
2019-04-10T03:13:38.230Z,1.91
2019-04-10T03:16:05.579Z,1.92
2019-04-10T03:18:32.692Z,1.90
2019-04-10T03:20:59.649Z,1.89
2019-04-10T03:23:26.725Z,1.84
2019-04-10T03:25:53.357Z,1.82
2019-04-10T03:28:19.976Z,1.78
2019-04-10T03:30:48.761Z,1.74
2019-04-10T03:33:47.300Z,1.69
2019-04-10T03:36:13.612Z,1.70
2019-04-10T03:38:53.943Z,1.70
2019-04-10T03:41:08.913Z,1.73
2019-04-10T03:43:36.112Z,1.73
2019-04-10T03:46:03.352Z,1.73
2019-04-10T03:48:31.314Z,1.70
2019-04-10T03:50:58.723Z,1.69
2019-04-10T03:53:26.413Z,1.68
2019-04-10T03:55:53.668Z,1.78
2019-04-10T03:58:20.970Z,1.74
2019-04-10T04:00:47.695Z,1.67
2019-04-10T04:03:14.421Z,1.64
2019-04-10T04:05:42.490Z,1.59
2019-04-10T04:08:09.470Z,1.58
2019-04-10T04:10:37.090Z,1.51
2019-04-10T04:13:05.968Z,1.47
2019-04-10T04:15:33.750Z,1.50
2019-04-10T04:18:02.414Z,1.49
2019-04-10T04:20:30.713Z,1.50
2019-04-10T04:22:57.557Z,1.44
2019-04-10T04:25:26.561Z,1.46
2019-04-10T04:27:53.876Z,1.44
2019-04-10T04:30:20.839Z,1.39
2019-04-10T04:32:48.364Z,1.36
2019-04-10T04:35:15.431Z,1.30
2019-04-10T04:37:44.290Z,1.26
2019-04-10T04:40:17.412Z,1.28
2019-04-10T04:43:02.257Z,1.31
2019-04-10T04:45:30.005Z,1.30
2019-04-10T04:47:57.628Z,1.29
2019-04-10T04:50:24.863Z,1.23
2019-04-10T04:52:52.229Z,1.19
2019-04-10T04:55:19.769Z,1.19
2019-04-10T04:57:47.150Z,1.24
2019-04-10T05:00:15.529Z,1.27
2019-04-10T05:02:44.784Z,1.32
2019-04-10T05:05:11.915Z,1.35
2019-04-10T05:07:39.708Z,1.38
2019-04-10T05:10:07.193Z,1.40
2019-04-10T05:12:34.165Z,1.45
2019-04-10T05:15:02.607Z,1.46
2019-04-10T05:17:30.871Z,1.53
2019-04-10T05:19:58.705Z,1.63
2019-04-10T05:22:26.471Z,1.69
2019-04-10T05:24:57.213Z,1.75
2019-04-10T05:27:29.591Z,1.80
2019-04-10T05:30:09.268Z,1.83
2019-04-10T05:32:39.983Z,1.90
2019-04-10T05:35:12.795Z,1.96
2019-04-10T05:37:48.129Z,2.03
2019-04-10T05:40:20.165Z,2.13
2019-04-10T05:42:49.152Z,2.18
2019-04-10T05:45:17.037Z,2.30
2019-04-10T05:47:44.464Z,2.42
2019-04-10T05:50:13.061Z,2.60
2019-04-10T05:52:40.481Z,2.75
2019-04-10T05:55:08.537Z,2.81
2019-04-10T05:57:35.425Z,2.84
2019-04-10T06:00:04.664Z,3.01
2019-04-10T06:02:32.105Z,3.13
2019-04-10T06:04:59.970Z,3.20
2019-04-10T06:07:49.358Z,3.29
2019-04-10T06:10:24.570Z,3.42
2019-04-10T06:12:56.542Z,3.49
2019-04-10T06:15:26.522Z,3.58
2019-04-10T06:18:04.976Z,3.62
2019-04-10T06:20:36.129Z,3.72
2019-04-10T06:23:09.474Z,3.82
2019-04-10T06:25:52.396Z,3.89
2019-04-10T06:28:31.027Z,3.94
2019-04-10T06:31:06.236Z,4.22
2019-04-10T06:33:36.104Z,4.36
2019-04-10T06:36:05.356Z,4.57
2019-04-10T06:38:35.769Z,4.63
2019-04-10T06:41:04.152Z,4.62
2019-04-10T06:43:33.080Z,4.77
2019-04-10T06:46:00.044Z,5.03
2019-04-10T06:48:34.112Z,5.09
2019-04-10T06:51:02.047Z,5.24
2019-04-10T06:53:29.030Z,5.55
2019-04-10T06:55:56.535Z,5.70
2019-04-10T06:58:23.646Z,5.81
2019-04-10T07:00:53.222Z,5.94
2019-04-10T07:03:19.098Z,6.20
2019-04-10T07:06:06.274Z,6.20
2019-04-10T07:08:27.467Z,6.62
2019-04-10T07:11:02.011Z,6.84
2019-04-10T07:13:23.805Z,6.66
2019-04-10T07:15:54.397Z,6.76
2019-04-10T07:18:20.675Z,7.07
2019-04-10T07:20:48.969Z,6.70
2019-04-10T07:23:23.311Z,6.70
2019-04-10T07:25:45.790Z,6.69
2019-04-10T07:28:13.720Z,7.01
2019-04-10T07:30:40.717Z,7.50
2019-04-10T07:33:07.669Z,7.97
2019-04-10T07:35:35.769Z,8.07
2019-04-10T07:38:03.099Z,8.44
2019-04-10T07:40:33.871Z,7.72
2019-04-10T07:42:58.797Z,7.44
2019-04-10T07:45:27.203Z,7.56
2019-04-10T07:47:55.895Z,7.50
2019-04-10T07:50:22.763Z,7.53
2019-04-10T07:52:49.987Z,7.71
2019-04-10T07:55:16.965Z,8.22
2019-04-10T07:57:53.216Z,8.84
2019-04-10T08:00:20.196Z,8.83
2019-04-10T08:02:49.181Z,9.57
2019-04-10T08:05:16.645Z,9.71
2019-04-10T08:07:43.463Z,9.54
2019-04-10T08:10:11.988Z,9.49
2019-04-10T08:12:47.336Z,9.46
2019-04-10T08:15:09.151Z,9.90
2019-04-10T08:17:41.849Z,9.95
2019-04-10T08:20:15.504Z,9.72
2019-04-10T08:22:47.579Z,9.17
2019-04-10T08:25:20.315Z,9.20
2019-04-10T08:27:52.342Z,8.73
2019-04-10T08:30:50.402Z,8.58
2019-04-10T08:33:19.636Z,8.90
2019-04-10T08:35:57.658Z,9.29
2019-04-10T08:38:29.973Z,9.67
2019-04-10T08:41:05.185Z,9.19
2019-04-10T08:43:35.435Z,9.63
2019-04-10T08:46:03.507Z,9.02
2019-04-10T08:48:31.512Z,8.74
2019-04-10T08:50:58.882Z,8.55
2019-04-10T08:53:27.219Z,7.83
2019-04-10T08:55:54.976Z,7.78
2019-04-10T08:58:22.874Z,8.92
2019-04-10T09:00:51.462Z,9.90
2019-04-10T09:03:19.028Z,9.86
2019-04-10T09:05:46.954Z,10.09
2019-04-10T09:08:15.106Z,9.97
2019-04-10T09:10:42.772Z,10.12
2019-04-10T09:13:10.431Z,9.49
2019-04-10T09:15:38.122Z,8.84
2019-04-10T09:18:06.143Z,9.28
2019-04-10T09:20:33.147Z,9.39
2019-04-10T09:23:19.973Z,9.08
2019-04-10T09:25:28.536Z,8.92
2019-04-10T09:27:55.243Z,8.57
2019-04-10T09:30:22.206Z,9.22
2019-04-10T09:32:48.998Z,10.14
2019-04-10T09:35:16.374Z,9.62
2019-04-10T09:37:43.533Z,10.30
2019-04-10T09:40:11.981Z,11.01
2019-04-10T09:42:39.599Z,10.73
2019-04-10T09:45:09.331Z,10.04
2019-04-10T09:47:36.279Z,10.45
2019-04-10T09:50:05.677Z,10.68
2019-04-10T09:52:37.601Z,11.07
2019-04-10T09:55:07.539Z,10.65
2019-04-10T09:57:37.049Z,10.59
2019-04-10T10:00:07.763Z,10.21
2019-04-10T10:02:36.117Z,10.17
2019-04-10T10:05:06.372Z,10.23
2019-04-10T10:07:36.869Z,10.72
2019-04-10T10:10:08.799Z,10.38
2019-04-10T10:12:45.007Z,9.48
2019-04-10T10:15:15.287Z,9.87
2019-04-10T10:17:47.417Z,9.53
2019-04-10T10:20:17.491Z,9.43
2019-04-10T10:22:49.434Z,9.56
2019-04-10T10:25:23.487Z,9.85
2019-04-10T10:27:52.353Z,10.30
2019-04-10T10:30:23.655Z,10.56
2019-04-10T10:32:53.442Z,10.56
2019-04-10T10:35:23.133Z,10.53
2019-04-10T10:37:54.727Z,11.56
2019-04-10T10:40:23.836Z,11.75
2019-04-10T10:42:56.146Z,11.98
2019-04-10T10:45:27.344Z,11.98
2019-04-10T10:48:01.641Z,11.71
2019-04-10T10:50:34.521Z,11.11
2019-04-10T10:53:06.178Z,11.37
2019-04-10T10:55:37.733Z,11.69
2019-04-10T10:58:08.106Z,12.27
2019-04-10T11:00:41.132Z,12.48
2019-04-10T11:03:14.481Z,12.12
2019-04-10T11:05:48.586Z,12.01
2019-04-10T11:08:19.150Z,12.44
2019-04-10T11:10:53.480Z,12.47
2019-04-10T11:13:19.106Z,12.46
2019-04-10T11:15:48.489Z,12.79
2019-04-10T11:18:19.677Z,12.81
2019-04-10T11:20:48.496Z,13.35
2019-04-10T11:23:19.645Z,12.70
2019-04-10T11:25:50.360Z,12.42
2019-04-10T11:28:18.710Z,12.34
2019-04-10T11:30:47.432Z,12.40
2019-04-10T11:33:17.634Z,12.12
2019-04-10T11:35:45.895Z,12.47
2019-04-10T11:38:13.532Z,12.34
2019-04-10T11:40:45.742Z,12.44
2019-04-10T11:43:13.565Z,12.55
2019-04-10T11:45:45.455Z,12.45
2019-04-10T11:48:10.293Z,13.10
2019-04-10T11:50:38.460Z,12.53
2019-04-10T11:53:06.952Z,13.05
2019-04-10T11:55:43.183Z,13.35
2019-04-10T11:58:03.073Z,13.33
2019-04-10T12:00:45.426Z,13.06
2019-04-10T12:03:08.724Z,12.81
2019-04-10T12:05:36.632Z,13.09
2019-04-10T12:08:27.956Z,12.85
2019-04-10T12:13:01.929Z,12.95
2019-04-10T12:15:28.914Z,13.28
2019-04-10T12:17:55.564Z,13.42
2019-04-10T12:20:22.208Z,13.18
2019-04-10T12:22:48.980Z,13.04
2019-04-10T12:25:16.116Z,13.56
2019-04-10T12:27:45.335Z,13.57
2019-04-10T12:30:13.236Z,13.58
2019-04-10T12:32:41.054Z,13.81
2019-04-10T12:35:10.929Z,13.67
2019-04-10T12:37:39.138Z,13.31
2019-04-10T12:40:07.697Z,13.15
2019-04-10T12:46:30.315Z,13.56
2019-04-10T12:48:59.748Z,13.01
2019-04-10T12:51:26.033Z,12.47
2019-04-10T12:53:55.929Z,11.61
2019-04-10T12:56:24.034Z,11.73
2019-04-10T12:58:53.041Z,11.29
2019-04-10T13:01:20.528Z,11.67
2019-04-10T13:03:47.797Z,12.23
2019-04-10T13:06:16.294Z,12.52
2019-04-10T13:08:57.116Z,12.86
2019-04-10T13:11:12.086Z,12.87
2019-04-10T13:13:39.066Z,12.61
2019-04-10T13:16:05.882Z,12.27
2019-04-10T13:18:32.612Z,12.73
2019-04-10T13:20:59.693Z,12.51
2019-04-10T13:23:26.693Z,12.28
2019-04-10T13:25:59.806Z,12.25
2019-04-10T13:28:21.875Z,12.23
2019-04-10T13:30:54.910Z,12.94
2019-04-10T13:33:22.687Z,13.11
2019-04-10T13:35:53.784Z,12.82
2019-04-10T13:38:30.169Z,13.05
2019-04-10T13:40:59.820Z,13.33
2019-04-10T13:43:31.248Z,13.30
2019-04-10T13:46:02.606Z,12.79
2019-04-10T13:48:31.447Z,12.82
2019-04-10T13:51:03.365Z,12.05
2019-04-10T13:53:35.280Z,11.90
2019-04-10T13:56:06.606Z,11.36
2019-04-10T13:58:35.183Z,11.22
2019-04-10T14:01:09.611Z,10.59
2019-04-10T14:03:42.860Z,10.38
2019-04-10T14:06:15.083Z,10.33
2019-04-10T14:09:04.511Z,10.44
2019-04-10T14:11:13.192Z,10.82
2019-04-10T14:13:42.143Z,11.06
2019-04-10T14:16:09.328Z,11.00
2019-04-10T14:18:39.047Z,11.37
2019-04-10T14:21:11.201Z,11.34
2019-04-10T14:23:35.440Z,11.29
2019-04-10T14:26:42.083Z,11.22
2019-04-10T14:29:05.948Z,10.97
2019-04-10T14:31:38.590Z,10.93
2019-04-10T14:34:06.609Z,10.90
2019-04-10T14:36:33.938Z,11.10
2019-04-10T14:39:12.118Z,10.74
2019-04-10T14:41:33.857Z,10.76
2019-04-10T14:44:00.567Z,10.66
2019-04-10T14:46:28.334Z,10.47
2019-04-10T14:48:58.317Z,10.49
2019-04-10T14:51:25.267Z,10.64
2019-04-10T14:53:56.099Z,10.57
2019-04-10T14:56:26.853Z,10.60
2019-04-10T14:58:54.875Z,10.42
2019-04-10T15:01:23.980Z,10.85
2019-04-10T15:03:51.354Z,10.72
2019-04-10T15:06:21.942Z,10.83
2019-04-10T15:08:50.303Z,10.64
2019-04-10T15:11:20.473Z,10.96
2019-04-10T15:13:48.725Z,10.96
2019-04-10T15:16:16.688Z,10.98
2019-04-10T15:18:43.969Z,10.80
2019-04-10T15:21:12.394Z,10.56
2019-04-10T15:23:39.401Z,10.40
2019-04-10T15:26:06.336Z,10.16
2019-04-10T15:28:36.055Z,10.11
2019-04-10T15:31:04.610Z,10.10
2019-04-10T15:33:32.987Z,10.08
2019-04-10T15:35:59.937Z,10.10
2019-04-10T15:38:27.104Z,10.23
2019-04-10T15:40:56.692Z,10.10
2019-04-10T15:43:26.134Z,10.15
2019-04-10T15:45:52.772Z,10.09
2019-04-10T15:48:20.869Z,9.94
2019-04-10T15:50:49.799Z,9.79
2019-04-10T15:53:16.497Z,9.71
2019-04-10T15:55:43.331Z,9.72
2019-04-10T15:58:10.795Z,10.00
2019-04-10T16:00:38.188Z,9.79
2019-04-10T16:03:05.047Z,9.67
2019-04-10T16:05:31.902Z,9.62
2019-04-10T16:07:58.739Z,9.75
2019-04-10T16:10:46.282Z,9.73
2019-04-10T16:13:32.567Z,9.67
2019-04-10T16:16:21.255Z,9.57
2019-04-10T16:18:49.129Z,9.70
2019-04-10T16:21:16.166Z,9.40
2019-04-10T16:23:47.782Z,9.45
2019-04-10T16:26:15.212Z,9.44
2019-04-10T16:28:43.617Z,9.44
2019-04-10T16:31:10.936Z,9.34
2019-04-10T16:33:37.604Z,9.32
2019-04-10T16:36:05.256Z,9.42
2019-04-10T16:38:32.983Z,9.22
2019-04-10T16:41:00.506Z,9.25
2019-04-10T16:43:28.509Z,9.06
2019-04-10T16:45:55.273Z,9.05
2019-04-10T16:48:28.244Z,8.98
2019-04-10T16:50:56.102Z,9.04
2019-04-10T16:53:23.134Z,9.01
2019-04-10T16:55:51.060Z,8.94
2019-04-10T16:58:18.746Z,8.94
2019-04-10T17:00:47.351Z,8.86
2019-04-10T17:03:14.224Z,8.77
2019-04-10T17:05:41.879Z,8.65
2019-04-10T17:08:09.775Z,8.51
2019-04-10T17:10:38.691Z,8.44
2019-04-10T17:13:07.259Z,8.41
2019-04-10T17:15:34.355Z,8.23
2019-04-10T17:18:03.052Z,8.25
2019-04-10T17:20:34.323Z,8.16
2019-04-10T17:23:00.984Z,8.19
2019-04-10T17:25:30.410Z,8.04
2019-04-10T17:28:01.838Z,7.90
2019-04-10T17:30:29.507Z,7.92
2019-04-10T17:32:56.585Z,7.77
2019-04-10T17:35:23.399Z,7.72
2019-04-10T17:37:50.778Z,7.66
2019-04-10T17:40:29.791Z,7.66
2019-04-10T17:42:58.860Z,7.62
2019-04-10T17:45:32.669Z,7.56
2019-04-10T17:48:01.156Z,7.50
2019-04-10T17:50:28.020Z,7.48
2019-04-10T17:52:54.972Z,7.44
2019-04-10T17:55:23.236Z,7.36
2019-04-10T17:57:52.661Z,7.25
2019-04-10T18:00:31.283Z,7.23
2019-04-10T18:03:01.231Z,7.25
2019-04-10T18:05:28.770Z,7.14
2019-04-10T18:07:56.566Z,7.00
2019-04-10T18:10:39.567Z,7.01
2019-04-10T18:13:02.985Z,6.89
2019-04-10T18:15:32.992Z,6.80
2019-04-10T18:17:59.924Z,6.75
2019-04-10T18:20:26.620Z,6.63
2019-04-10T18:22:56.272Z,6.50
2019-04-10T18:25:23.355Z,6.35
2019-04-10T18:27:52.378Z,6.18
2019-04-10T18:30:19.561Z,6.14
2019-04-10T18:32:47.630Z,6.09
2019-04-10T18:35:14.564Z,6.07
2019-04-10T18:37:41.762Z,6.07
2019-04-10T18:40:08.524Z,6.04
2019-04-10T18:42:35.830Z,6.06
2019-04-10T18:45:04.343Z,6.01
2019-04-10T18:47:36.423Z,5.98
2019-04-10T18:50:02.939Z,5.94
2019-04-10T18:52:29.996Z,5.89
2019-04-10T18:54:57.049Z,5.86
2019-04-10T18:57:24.584Z,5.79
2019-04-10T19:00:12.321Z,5.79
2019-04-10T19:02:57.395Z,5.71
2019-04-10T19:05:34.783Z,5.71
2019-04-10T19:08:03.076Z,5.68
2019-04-10T19:10:30.672Z,5.69
2019-04-10T19:12:57.571Z,5.71
2019-04-10T19:15:27.070Z,5.61
2019-04-10T19:17:55.177Z,5.50
2019-04-10T19:20:23.298Z,5.45
2019-04-10T19:22:51.051Z,5.35
2019-04-10T19:25:20.991Z,5.27
2019-04-10T19:27:48.601Z,4.99
2019-04-10T19:30:33.075Z,4.78
2019-04-10T19:33:01.692Z,4.52
2019-04-10T19:35:35.343Z,3.92
2019-04-10T19:38:03.166Z,3.76
2019-04-10T19:40:38.682Z,3.67
2019-04-10T19:43:06.056Z,3.63
2019-04-10T19:45:34.179Z,3.53
2019-04-10T19:48:01.142Z,3.44
2019-04-10T19:50:29.684Z,3.36
2019-04-10T19:52:57.493Z,3.33
2019-04-10T19:55:24.513Z,3.20
2019-04-10T19:57:51.423Z,2.97
2019-04-10T20:00:22.140Z,2.80
2019-04-10T20:02:51.094Z,2.67
2019-04-10T20:05:23.411Z,2.58
2019-04-10T20:07:51.385Z,2.61
2019-04-10T20:10:19.188Z,2.60
2019-04-10T20:12:45.793Z,2.40
2019-04-10T20:15:14.105Z,2.35
2019-04-10T20:17:40.954Z,2.47
2019-04-10T20:20:08.884Z,2.52
2019-04-10T20:22:36.902Z,2.57
2019-04-10T20:25:03.942Z,2.60
2019-04-10T20:27:30.703Z,2.55
2019-04-10T20:29:57.614Z,2.55
2019-04-10T20:32:24.174Z,2.49
2019-04-10T20:34:51.955Z,2.38
2019-04-10T20:37:18.889Z,2.33
2019-04-10T20:39:47.939Z,2.27
2019-04-10T20:42:16.206Z,2.23
2019-04-10T20:44:43.144Z,2.18
2019-04-10T20:47:10.798Z,2.13
2019-04-10T20:49:38.438Z,2.05
2019-04-10T20:52:08.274Z,1.86
2019-04-10T20:54:35.235Z,1.75
2019-04-10T20:57:01.870Z,1.65
2019-04-10T20:59:30.492Z,1.57
2019-04-10T21:01:57.819Z,1.57
2019-04-10T21:04:25.432Z,1.61
2019-04-10T21:06:52.528Z,1.72
2019-04-10T21:09:19.195Z,1.69
2019-04-10T21:11:58.064Z,1.76
2019-04-10T21:14:16.115Z,1.83
2019-04-10T21:16:44.214Z,1.99
2019-04-10T21:19:14.614Z,2.04
2019-04-10T21:21:41.449Z,2.23
2019-04-10T21:24:09.258Z,2.44
2019-04-10T21:26:38.729Z,2.60
2019-04-10T21:29:09.465Z,2.72
2019-04-10T21:31:50.553Z,2.79
2019-04-10T21:34:28.831Z,2.86
2019-04-10T21:36:57.621Z,2.95
2019-04-10T21:39:25.662Z,2.99
2019-04-10T21:41:53.532Z,3.02
2019-04-10T21:44:20.772Z,3.02
2019-04-10T21:46:48.616Z,3.08
2019-04-10T21:49:15.601Z,3.13
2019-04-10T21:51:42.834Z,3.15
2019-04-10T21:54:09.827Z,3.13
2019-04-10T21:56:37.285Z,3.18
2019-04-10T21:59:05.467Z,3.22
2019-04-10T22:01:32.526Z,3.20
2019-04-10T22:04:00.539Z,3.13
2019-04-10T22:06:59.306Z,3.11
2019-04-10T22:09:53.094Z,3.06
2019-04-10T22:12:30.418Z,3.06
2019-04-10T22:14:52.526Z,2.98
2019-04-10T22:17:19.262Z,2.95
2019-04-10T22:19:47.378Z,2.96
2019-04-10T22:22:18.127Z,2.89
2019-04-10T22:24:50.577Z,2.87
2019-04-10T22:27:19.016Z,2.91
2019-04-10T22:29:46.910Z,2.89
2019-04-10T22:32:14.650Z,2.85
2019-04-10T22:34:42.068Z,2.87
2019-04-10T22:37:09.909Z,2.90
2019-04-10T22:39:39.617Z,2.79
2019-04-10T22:42:07.515Z,2.73
2019-04-10T22:44:41.991Z,2.71
2019-04-10T22:47:05.095Z,2.73
2019-04-10T22:49:32.823Z,2.71
2019-04-10T22:52:00.611Z,2.66
2019-04-10T22:54:28.462Z,2.65
2019-04-10T22:56:56.540Z,2.71
2019-04-10T22:59:24.236Z,2.69
2019-04-10T23:02:00.446Z,2.63
2019-04-10T23:04:20.158Z,2.61
2019-04-10T23:06:47.236Z,2.62
2019-04-10T23:09:13.921Z,2.56
2019-04-10T23:11:44.653Z,2.57
2019-04-10T23:14:10.502Z,2.59
2019-04-10T23:16:37.948Z,2.50
2019-04-10T23:19:05.690Z,2.46
2019-04-10T23:21:32.503Z,2.42
2019-04-10T23:24:01.672Z,2.34
2019-04-10T23:26:29.136Z,2.35
2019-04-10T23:28:56.039Z,2.36
2019-04-10T23:31:26.091Z,2.35
2019-04-10T23:33:52.882Z,2.37
2019-04-10T23:36:20.221Z,2.30
2019-04-10T23:38:47.982Z,2.27
2019-04-10T23:41:15.674Z,2.24
2019-04-10T23:43:46.019Z,2.19
2019-04-10T23:46:13.056Z,2.17
2019-04-10T23:48:39.664Z,2.13
2019-04-10T23:51:07.069Z,2.16
2019-04-10T23:53:37.132Z,2.17
2019-04-10T23:56:04.291Z,2.13
2019-04-10T23:58:31.810Z,2.12
